createdAt,value
2019-02-07T00:01:21.550Z,18.37
2019-02-07T00:03:57.133Z,17.52
2019-02-07T00:06:26.206Z,18.40
2019-02-07T00:09:06.248Z,20.15
2019-02-07T00:11:40.314Z,19.80
2019-02-07T00:14:11.978Z,19.52
2019-02-07T00:16:44.587Z,20.12
2019-02-07T00:19:15.471Z,19.32
2019-02-07T00:21:45.354Z,19.05
2019-02-07T00:24:14.465Z,17.02
2019-02-07T00:26:49.603Z,19.27
2019-02-07T00:29:23.851Z,18.05
2019-02-07T00:31:53.896Z,18.00
2019-02-07T00:34:25.090Z,18.02
2019-02-07T00:36:58.319Z,18.12
2019-02-07T00:39:31.641Z,17.73
2019-02-07T00:42:09.997Z,17.00
2019-02-07T00:44:50.218Z,17.87
2019-02-07T00:47:11.833Z,17.32
2019-02-07T00:49:52.359Z,17.85
2019-02-07T00:52:24.873Z,15.80
2019-02-07T00:54:58.894Z,17.67
2019-02-07T00:57:37.740Z,17.35
2019-02-07T01:00:17.326Z,18.95
2019-02-07T01:02:47.445Z,18.73
2019-02-07T01:05:21.989Z,18.73
2019-02-07T01:07:54.044Z,20.60
2019-02-07T01:10:29.952Z,19.10
2019-02-07T01:13:04.052Z,22.73
2019-02-07T01:15:34.575Z,18.82
2019-02-07T01:18:08.486Z,19.75
2019-02-07T01:20:40.263Z,20.72
2019-02-07T01:23:14.718Z,17.62
2019-02-07T01:25:44.226Z,17.32
2019-02-07T01:28:16.309Z,18.07
2019-02-07T01:30:45.811Z,15.90
2019-02-07T01:33:15.828Z,16.62
2019-02-07T01:35:47.249Z,15.90
2019-02-07T01:38:19.637Z,15.58
2019-02-07T01:40:50.650Z,16.25
2019-02-07T01:43:22.797Z,15.48
2019-02-07T01:45:54.269Z,15.78
2019-02-07T01:48:23.413Z,16.23
2019-02-07T01:50:53.433Z,14.70
2019-02-07T01:53:27.535Z,14.55
2019-02-07T01:56:00.022Z,16.23
2019-02-07T01:58:31.014Z,14.80
2019-02-07T02:01:06.864Z,14.85
2019-02-07T02:03:38.038Z,15.48
2019-02-07T02:06:10.882Z,14.78
2019-02-07T02:08:43.137Z,16.05
2019-02-07T02:11:15.386Z,16.90
2019-02-07T02:13:47.450Z,15.80
2019-02-07T02:16:18.928Z,16.10
2019-02-07T02:18:51.106Z,15.30
2019-02-07T02:21:22.219Z,16.27
2019-02-07T02:23:53.429Z,17.87
2019-02-07T02:26:27.833Z,16.05
2019-02-07T02:28:59.861Z,15.53
2019-02-07T02:31:31.859Z,15.80
2019-02-07T02:34:01.854Z,15.88
2019-02-07T02:36:32.865Z,15.50
2019-02-07T02:39:02.816Z,15.80
2019-02-07T02:41:35.754Z,15.50
2019-02-07T02:44:11.811Z,16.48
2019-02-07T02:46:51.946Z,16.20
2019-02-07T02:49:22.451Z,17.15
2019-02-07T02:51:51.732Z,16.27
2019-02-07T02:54:39.966Z,15.75
2019-02-07T02:57:10.102Z,16.62
2019-02-07T02:59:40.502Z,16.00
2019-02-07T03:02:22.723Z,15.93
2019-02-07T03:05:03.890Z,16.90
2019-02-07T03:07:51.035Z,14.93
2019-02-07T03:10:41.542Z,15.80
2019-02-07T03:13:35.252Z,15.18
2019-02-07T03:16:23.729Z,14.33
2019-02-07T03:19:14.967Z,16.10
2019-02-07T03:22:01.827Z,15.88
2019-02-07T03:24:45.325Z,14.90
2019-02-07T03:27:29.761Z,15.20
2019-02-07T03:30:17.721Z,14.50
2019-02-07T03:33:06.369Z,15.58
2019-02-07T03:35:45.711Z,14.95
2019-02-07T03:38:22.994Z,15.80
2019-02-07T03:41:01.112Z,14.93
2019-02-07T03:43:48.052Z,15.08
2019-02-07T03:46:48.548Z,14.25
2019-02-07T03:49:39.731Z,17.77
2019-02-07T03:52:30.266Z,16.62
2019-02-07T03:55:30.678Z,16.40
2019-02-07T03:58:24.877Z,15.55
2019-02-07T04:01:11.560Z,16.48
2019-02-07T04:04:01.317Z,14.25
2019-02-07T04:07:04.491Z,13.68
2019-02-07T04:10:04.808Z,13.78
2019-02-07T04:12:54.012Z,14.70
2019-02-07T04:15:38.987Z,14.63
2019-02-07T04:18:29.419Z,12.95
2019-02-07T04:21:10.312Z,13.65
2019-02-07T04:23:59.570Z,14.40
2019-02-07T04:26:55.721Z,14.13
2019-02-07T04:29:31.591Z,14.80
2019-02-07T04:32:32.010Z,14.03
2019-02-07T04:35:23.930Z,14.47
2019-02-07T04:38:16.590Z,12.10
2019-02-07T04:40:58.393Z,14.85
2019-02-07T04:43:40.253Z,12.15
2019-02-07T04:46:26.572Z,13.50
2019-02-07T04:49:03.126Z,13.45
2019-02-07T04:51:43.391Z,12.70
2019-02-07T04:54:31.956Z,14.50
2019-02-07T04:57:19.071Z,13.13
2019-02-07T05:00:13.153Z,13.70
2019-02-07T05:02:59.847Z,13.30
2019-02-07T05:05:48.429Z,16.60
2019-02-07T05:08:27.946Z,16.30
2019-02-07T05:11:28.296Z,16.05
2019-02-07T05:14:24.927Z,15.65
2019-02-07T05:17:21.050Z,17.57
2019-02-07T05:20:02.057Z,15.98
2019-02-07T05:22:47.828Z,15.58
2019-02-07T05:25:36.251Z,16.93
2019-02-07T05:28:20.207Z,15.63
2019-02-07T05:31:23.358Z,16.57
2019-02-07T05:34:00.092Z,15.65
2019-02-07T05:36:46.314Z,16.75
2019-02-07T05:39:39.593Z,15.72
2019-02-07T05:42:43.476Z,16.82
2019-02-07T05:45:29.954Z,16.05
2019-02-07T05:48:19.076Z,16.10
2019-02-07T05:51:07.194Z,15.72
2019-02-07T05:53:44.663Z,16.93
2019-02-07T05:56:31.098Z,16.57
2019-02-07T05:59:14.586Z,16.75
2019-02-07T06:02:14.781Z,17.48
2019-02-07T06:04:54.989Z,17.37
2019-02-07T06:07:43.105Z,16.95
2019-02-07T06:10:26.732Z,15.88
2019-02-07T06:13:13.757Z,15.95
2019-02-07T06:16:04.812Z,15.08
2019-02-07T06:18:51.139Z,14.93
2019-02-07T06:21:49.104Z,15.68
2019-02-07T06:24:39.755Z,15.58
2019-02-07T06:27:31.775Z,15.58
2019-02-07T06:30:15.869Z,14.95
2019-02-07T06:32:58.326Z,14.07
2019-02-07T06:35:56.949Z,14.28
2019-02-07T06:42:16.947Z,13.48
2019-02-07T06:45:14.337Z,12.37
2019-02-07T06:48:09.836Z,12.35
2019-02-07T06:51:33.197Z,13.43
2019-02-07T06:55:19.230Z,12.45
2019-02-07T07:05:07.491Z,11.70
2019-02-07T07:08:47.846Z,11.93
2019-02-07T07:11:46.674Z,10.53
2019-02-07T07:14:58.798Z,11.80
2019-02-07T11:39:51.024Z,5.63
2019-02-07T11:47:35.933Z,5.27
2019-02-07T11:54:47.754Z,6.20
2019-02-07T11:57:38.703Z,5.17
2019-02-07T12:00:38.601Z,5.17
2019-02-07T12:03:52.908Z,5.33
2019-02-07T12:06:41.986Z,4.60
2019-02-07T12:09:37.836Z,5.90
2019-02-07T12:12:48.852Z,6.00
2019-02-07T12:15:57.425Z,6.00
2019-02-07T12:19:18.156Z,5.20
2019-02-07T12:22:02.751Z,5.53
2019-02-07T12:24:50.180Z,4.80
2019-02-07T12:27:36.694Z,4.77
2019-02-07T12:30:27.875Z,5.30
2019-02-07T12:33:34.338Z,5.50
2019-02-07T12:36:25.000Z,4.70
2019-02-07T12:39:20.012Z,4.63
2019-02-07T12:42:08.971Z,4.87
2019-02-07T12:45:04.048Z,4.70
2019-02-07T12:47:58.743Z,4.67
2019-02-07T12:50:50.751Z,5.43
2019-02-07T12:53:49.406Z,8.00
2019-02-07T12:56:37.483Z,13.43
2019-02-07T12:59:38.026Z,10.00
2019-02-07T13:02:26.721Z,7.70
2019-02-07T13:05:10.115Z,6.07
2019-02-07T13:08:12.533Z,5.27
2019-02-07T13:10:59.637Z,4.70
2019-02-07T13:13:52.318Z,4.23
2019-02-07T13:16:54.747Z,5.27
2019-02-07T13:19:40.532Z,4.57
2019-02-07T13:22:29.447Z,5.23
2019-02-07T13:25:23.661Z,4.70
2019-02-07T13:28:17.841Z,4.57
2019-02-07T13:31:07.888Z,5.83
2019-02-07T13:33:54.377Z,5.70
2019-02-07T13:36:45.710Z,5.57
2019-02-07T13:39:37.515Z,5.70
2019-02-07T13:42:26.847Z,5.13
2019-02-07T13:45:15.623Z,6.00
2019-02-07T13:48:31.606Z,5.50
2019-02-07T13:51:32.952Z,5.07
2019-02-07T13:54:22.555Z,4.43
2019-02-07T13:57:16.028Z,4.47
2019-02-07T14:04:02.813Z,4.17
2019-02-07T14:10:40.427Z,4.67
2019-02-07T14:13:56.700Z,4.40
2019-02-07T14:17:15.903Z,4.57
2019-02-07T14:20:45.892Z,4.53
2019-02-07T14:24:03.056Z,3.70
2019-02-07T14:27:13.551Z,3.60
2019-02-07T14:31:00.654Z,3.70
2019-02-07T14:34:26.911Z,3.30
2019-02-07T14:37:16.636Z,3.87
2019-02-07T14:40:07.185Z,3.73
2019-02-07T14:43:19.494Z,3.63
2019-02-07T14:46:40.716Z,3.13
2019-02-07T14:50:15.259Z,2.90
2019-02-07T14:52:47.292Z,2.70
2019-02-07T14:55:17.915Z,2.90
2019-02-07T14:57:51.293Z,3.47
2019-02-07T15:00:38.515Z,2.70
2019-02-07T15:03:11.799Z,3.30
2019-02-07T15:05:47.203Z,3.30
2019-02-07T15:08:19.787Z,3.80
2019-02-07T15:10:49.126Z,2.97
2019-02-07T15:13:21.346Z,2.60
2019-02-07T15:15:51.235Z,3.20
2019-02-07T15:18:20.771Z,3.03
2019-02-07T15:20:50.802Z,3.10
2019-02-07T15:23:19.925Z,3.70
2019-02-07T15:25:52.973Z,2.90
2019-02-07T15:28:23.482Z,3.17
2019-02-07T15:30:54.158Z,3.03
2019-02-07T15:33:26.354Z,2.80
2019-02-07T15:35:57.676Z,2.83
2019-02-07T15:38:27.886Z,2.70
2019-02-07T15:41:00.067Z,2.97
2019-02-07T15:43:33.142Z,3.00
2019-02-07T15:46:04.154Z,3.27
2019-02-07T15:48:36.640Z,2.80
2019-02-07T15:51:06.075Z,2.60
2019-02-07T15:53:35.593Z,2.40
2019-02-07T15:56:08.634Z,3.03
2019-02-07T15:59:07.883Z,2.70
2019-02-07T16:01:54.368Z,2.90
2019-02-07T16:04:31.731Z,2.50
2019-02-07T16:07:03.431Z,2.93
2019-02-07T16:09:43.597Z,2.70
2019-02-07T16:12:16.652Z,3.10
2019-02-07T16:14:49.146Z,3.47
2019-02-07T16:17:25.339Z,3.23
2019-02-07T16:19:55.301Z,3.17
2019-02-07T16:22:29.479Z,4.03
2019-02-07T16:25:04.140Z,2.63
2019-02-07T16:27:38.429Z,3.00
2019-02-07T16:30:17.510Z,2.80
2019-02-07T16:32:48.247Z,2.40
2019-02-07T16:35:20.583Z,3.67
2019-02-07T16:37:52.658Z,3.63
2019-02-07T16:40:25.663Z,3.47
2019-02-07T16:42:58.560Z,2.70
2019-02-07T16:45:45.112Z,2.60
2019-02-07T16:48:22.295Z,2.67
2019-02-07T16:50:59.840Z,2.50
2019-02-07T16:53:42.630Z,2.97
2019-02-07T16:56:18.949Z,2.43
2019-02-07T16:58:52.240Z,2.20
2019-02-07T17:01:22.606Z,2.00
2019-02-07T17:07:28.604Z,1.70
2019-02-07T17:10:24.554Z,1.87
2019-02-07T17:12:58.489Z,1.80
2019-02-07T17:15:33.652Z,1.83
2019-02-07T17:18:02.787Z,2.10
2019-02-07T17:21:23.535Z,1.73
2019-02-07T17:27:49.485Z,1.50
2019-02-07T17:30:32.935Z,1.50
2019-02-07T17:33:19.495Z,1.67
2019-02-07T17:35:51.999Z,1.67
2019-02-07T17:38:59.023Z,1.67
2019-02-07T17:45:08.287Z,1.83
2019-02-07T17:47:44.878Z,1.37
2019-02-07T17:50:35.608Z,1.63
2019-02-07T17:53:19.887Z,1.60
2019-02-07T17:56:06.547Z,1.97
2019-02-07T18:24:34.983Z,1.87
2019-02-07T18:27:05.380Z,1.97
2019-02-07T18:29:44.591Z,1.70
2019-02-07T18:35:17.578Z,1.77
2019-02-07T18:37:59.135Z,1.97
2019-02-07T18:45:46.249Z,2.17
2019-02-07T18:48:54.982Z,2.20
2019-02-07T18:51:28.899Z,2.30
2019-02-07T18:53:59.836Z,3.93
2019-02-07T18:56:29.886Z,5.87
2019-02-07T18:59:08.836Z,12.00
2019-02-07T19:01:39.556Z,5.37
2019-02-07T19:08:01.826Z,2.80
2019-02-07T19:18:44.496Z,2.37
2019-02-07T19:25:19.016Z,2.57
2019-02-07T19:32:04.143Z,2.70
2019-02-07T19:53:48.350Z,3.13
2019-02-07T20:00:40.804Z,3.30
2019-02-07T20:07:37.410Z,3.17
2019-02-07T20:11:07.968Z,2.77
2019-02-07T20:13:53.153Z,2.30
2019-02-07T20:17:06.789Z,2.63
2019-02-07T20:19:39.038Z,2.30
2019-02-07T20:22:25.058Z,2.57
2019-02-07T20:25:00.993Z,2.27
2019-02-07T20:27:39.382Z,3.00
2019-02-07T20:33:24.117Z,2.37
2019-02-07T20:35:57.539Z,2.60
2019-02-07T20:39:06.396Z,2.80
2019-02-07T20:42:08.467Z,2.60
2019-02-07T20:44:52.647Z,3.00
2019-02-07T20:47:29.975Z,2.50
2019-02-07T20:50:14.681Z,2.60
2019-02-07T20:52:57.394Z,2.63
2019-02-07T20:55:37.703Z,2.40
2019-02-07T20:58:31.865Z,2.77
2019-02-07T21:01:31.802Z,2.57
2019-02-07T21:04:35.670Z,2.73
2019-02-07T21:07:14.764Z,2.73
2019-02-07T21:09:45.838Z,4.80
2019-02-07T21:12:19.541Z,4.07
2019-02-07T21:14:59.297Z,7.30
2019-02-07T21:17:34.554Z,3.17
2019-02-07T21:20:13.182Z,4.50
2019-02-07T21:22:47.483Z,5.50
2019-02-07T21:25:23.083Z,3.60
2019-02-07T21:27:54.291Z,3.80
2019-02-07T21:30:28.875Z,3.73
2019-02-07T21:33:04.058Z,3.53
2019-02-07T21:35:42.319Z,2.90
2019-02-07T21:38:45.244Z,4.07
2019-02-07T21:41:21.618Z,2.87
2019-02-07T21:43:52.642Z,3.30
2019-02-07T21:46:37.497Z,4.17
2019-02-07T21:49:08.247Z,3.40
2019-02-07T21:51:38.079Z,2.97
2019-02-07T21:54:10.776Z,3.30
2019-02-07T21:56:40.227Z,3.97
2019-02-07T21:59:17.051Z,4.33
2019-02-07T22:01:48.502Z,3.13
2019-02-07T22:04:17.646Z,3.13
2019-02-07T22:06:47.600Z,3.77
2019-02-07T22:09:18.253Z,5.73
2019-02-07T22:11:51.062Z,2.90
2019-02-07T22:14:24.767Z,3.80
2019-02-07T22:16:56.974Z,3.60
2019-02-07T22:19:29.041Z,3.00
2019-02-07T22:21:58.622Z,2.53
2019-02-07T22:24:28.342Z,3.83
2019-02-07T22:26:59.257Z,3.30
2019-02-07T22:29:28.375Z,2.70
2019-02-07T22:31:58.616Z,3.10
2019-02-07T22:34:29.131Z,2.93
2019-02-07T22:37:03.137Z,2.60
2019-02-07T22:39:34.907Z,3.83
2019-02-07T22:42:07.015Z,3.20
2019-02-07T22:44:40.167Z,3.50
2019-02-07T22:47:12.115Z,2.27
2019-02-07T22:49:41.169Z,2.77
2019-02-07T22:52:10.182Z,2.43
2019-02-07T22:54:44.201Z,2.40
2019-02-07T22:57:16.047Z,2.27
2019-02-07T22:59:48.825Z,1.97
2019-02-07T23:02:21.578Z,2.60
2019-02-07T23:04:53.425Z,3.17
2019-02-07T23:07:25.638Z,2.67
2019-02-07T23:10:18.739Z,1.60
2019-02-07T23:12:48.722Z,2.10
2019-02-07T23:15:19.612Z,1.80
2019-02-07T23:17:48.861Z,1.70
2019-02-07T23:20:21.072Z,2.20
2019-02-07T23:22:50.525Z,2.10
2019-02-07T23:25:20.523Z,1.90
2019-02-07T23:27:51.463Z,1.80
2019-02-07T23:30:23.339Z,2.20
2019-02-07T23:32:52.846Z,2.27
2019-02-07T23:35:22.143Z,1.80
2019-02-07T23:37:53.935Z,2.83
2019-02-07T23:40:25.539Z,2.90
2019-02-07T23:42:55.984Z,2.83
2019-02-07T23:45:39.203Z,2.30
2019-02-07T23:48:08.459Z,2.80
2019-02-07T23:50:40.197Z,2.80
2019-02-07T23:53:14.918Z,3.40
2019-02-07T23:55:46.156Z,3.00
2019-02-07T23:58:15.493Z,5.10
